createdAt,value
2023-05-11T00:00:31.413Z,23.60
2023-05-11T00:02:33.061Z,23.50
2023-05-11T00:04:34.827Z,23.60
2023-05-11T00:06:36.444Z,23.50
2023-05-11T00:08:37.969Z,23.60
2023-05-11T00:10:39.500Z,23.50
2023-05-11T00:12:41.123Z,23.50
2023-05-11T00:14:42.650Z,23.50
2023-05-11T00:16:44.236Z,23.50
2023-05-11T00:18:46.015Z,23.60
2023-05-11T00:20:47.664Z,23.50
2023-05-11T00:22:49.298Z,23.50
2023-05-11T00:24:50.858Z,23.60
2023-05-11T00:26:52.451Z,23.60
2023-05-11T00:28:54.073Z,23.50
2023-05-11T00:30:56.636Z,23.60
2023-05-11T00:32:58.363Z,23.50
2023-05-11T00:34:59.953Z,23.50
2023-05-11T00:37:01.753Z,23.50
2023-05-11T00:39:04.096Z,23.60
2023-05-11T00:41:05.664Z,23.50
2023-05-11T00:43:07.350Z,23.50
2023-05-11T00:45:09.305Z,23.50
2023-05-11T00:47:11.049Z,23.50
2023-05-11T00:49:16.978Z,23.50
2023-05-11T00:51:18.850Z,23.60
2023-05-11T00:53:20.457Z,23.50
2023-05-11T00:55:22.436Z,23.50
2023-05-11T00:57:23.995Z,23.50
2023-05-11T00:59:25.753Z,23.50
2023-05-11T01:01:27.924Z,23.50
2023-05-11T01:03:29.633Z,23.50
2023-05-11T01:05:52.759Z,23.50
2023-05-11T01:07:59.381Z,23.50
2023-05-11T01:10:19.886Z,23.50
2023-05-11T01:12:27.816Z,23.50
2023-05-11T01:14:34.682Z,23.50
2023-05-11T01:16:38.488Z,23.50
2023-05-11T01:18:58.941Z,23.50
2023-05-11T01:21:01.528Z,23.50
2023-05-11T01:23:14.356Z,23.50
2023-05-11T01:25:34.826Z,23.50
2023-05-11T01:27:36.309Z,23.50
2023-05-11T01:29:55.956Z,23.40
2023-05-11T01:31:58.417Z,23.40
2023-05-11T01:34:12.680Z,23.40
2023-05-11T01:36:15.898Z,23.40
2023-05-11T01:38:19.165Z,23.40
2023-05-11T01:40:24.608Z,23.40
2023-05-11T01:42:31.929Z,23.40
2023-05-11T01:44:34.668Z,23.40
2023-05-11T01:46:36.761Z,23.40
2023-05-11T01:48:39.724Z,23.40
2023-05-11T01:50:42.035Z,23.40
2023-05-11T01:52:44.063Z,23.40
2023-05-11T01:54:47.102Z,23.50
2023-05-11T01:56:49.069Z,23.40
2023-05-11T01:58:51.088Z,23.30
2023-05-11T02:00:55.084Z,23.40
2023-05-11T02:02:56.903Z,23.40
2023-05-11T02:04:59.653Z,23.40
2023-05-11T02:07:02.128Z,23.40
2023-05-11T02:09:04.227Z,23.40
2023-05-11T02:11:06.384Z,23.30
2023-05-11T02:13:09.860Z,23.40
2023-05-11T02:15:12.458Z,23.40
2023-05-11T02:17:15.673Z,23.40
2023-05-11T02:19:17.853Z,23.40
2023-05-11T02:21:20.849Z,23.40
2023-05-11T02:23:24.886Z,23.30
2023-05-11T02:25:26.677Z,23.40
2023-05-11T02:27:28.316Z,23.40
2023-05-11T02:29:29.873Z,23.30
2023-05-11T02:31:35.563Z,23.40
2023-05-11T02:33:39.467Z,23.30
2023-05-11T02:35:42.944Z,23.30
2023-05-11T02:37:46.334Z,23.30
2023-05-11T02:39:50.785Z,23.30
2023-05-11T02:41:56.019Z,23.30
2023-05-11T02:44:01.254Z,23.30
2023-05-11T02:46:03.783Z,23.30
2023-05-11T02:48:09.731Z,23.30
2023-05-11T02:50:12.155Z,23.30
2023-05-11T02:52:13.968Z,23.30
2023-05-11T02:54:16.866Z,23.30
2023-05-11T02:56:18.480Z,23.30
2023-05-11T02:58:20.142Z,23.30
2023-05-11T03:00:22.268Z,23.30
2023-05-11T03:02:24.424Z,23.30
2023-05-11T03:04:26.201Z,23.20
2023-05-11T03:06:27.794Z,23.20
2023-05-11T03:08:29.320Z,23.20
2023-05-11T03:10:31.475Z,23.20
2023-05-11T03:12:34.551Z,23.20
2023-05-11T03:14:36.595Z,23.30
2023-05-11T03:16:38.805Z,23.30
2023-05-11T03:18:40.879Z,23.30
2023-05-11T03:20:43.273Z,23.20
2023-05-11T03:22:45.756Z,23.30
2023-05-11T03:24:47.624Z,23.30
2023-05-11T03:26:50.321Z,23.30
2023-05-11T03:28:52.776Z,23.20
2023-05-11T03:30:54.469Z,23.20
2023-05-11T03:32:56.305Z,23.20
2023-05-11T03:34:58.304Z,23.20
2023-05-11T03:37:00.665Z,23.20
2023-05-11T03:39:03.054Z,23.20
2023-05-11T03:41:04.680Z,23.20
2023-05-11T03:43:07.460Z,23.20
2023-05-11T03:45:09.917Z,23.20
2023-05-11T03:47:12.614Z,23.20
2023-05-11T03:49:15.634Z,23.30
2023-05-11T03:51:17.370Z,23.30
2023-05-11T03:53:19.440Z,23.30
2023-05-11T03:55:21.450Z,23.30
2023-05-11T03:57:25.311Z,23.30
2023-05-11T03:59:26.845Z,23.30
2023-05-11T04:01:28.769Z,23.30
2023-05-11T04:03:30.493Z,23.20
2023-05-11T04:05:32.281Z,23.20
2023-05-11T04:07:33.917Z,23.20
2023-05-11T04:09:35.733Z,23.20
2023-05-11T04:11:38.006Z,23.30
2023-05-11T04:13:39.732Z,23.30
2023-05-11T04:15:41.426Z,23.20
2023-05-11T04:17:43.024Z,23.20
2023-05-11T04:19:44.616Z,23.20
2023-05-11T04:21:47.008Z,23.20
2023-05-11T04:23:48.608Z,23.20
2023-05-11T04:25:54.555Z,23.30
2023-05-11T04:27:56.099Z,23.30
2023-05-11T04:29:57.668Z,23.30
2023-05-11T04:31:59.340Z,23.30
2023-05-11T04:34:00.962Z,23.30
2023-05-11T04:36:02.493Z,23.30
2023-05-11T04:38:04.086Z,23.30
2023-05-11T04:40:07.350Z,23.30
2023-05-11T04:42:09.061Z,23.40
2023-05-11T04:44:10.714Z,23.40
2023-05-11T04:46:12.549Z,23.30
2023-05-11T04:48:14.248Z,23.40
2023-05-11T04:50:16.103Z,23.40
2023-05-11T04:52:17.746Z,23.40
2023-05-11T04:54:19.317Z,23.40
2023-05-11T04:56:21.489Z,23.40
2023-05-11T04:58:23.210Z,23.40
2023-05-11T05:00:24.889Z,23.40
2023-05-11T05:02:26.492Z,23.40
2023-05-11T05:04:28.053Z,23.40
2023-05-11T05:06:29.623Z,23.40
2023-05-11T05:08:31.215Z,23.40
2023-05-11T05:10:32.971Z,23.50
2023-05-11T05:12:37.296Z,23.50
2023-05-11T05:14:38.903Z,23.50
2023-05-11T05:16:40.540Z,23.40
2023-05-11T05:18:42.162Z,23.40
2023-05-11T05:20:43.688Z,23.40
2023-05-11T05:22:45.397Z,23.40
2023-05-11T05:24:46.988Z,23.40
2023-05-11T05:26:48.501Z,23.40
2023-05-11T05:28:50.004Z,23.40
2023-05-11T05:30:51.660Z,23.40
2023-05-11T05:32:54.881Z,23.40
2023-05-11T05:34:56.604Z,23.40
2023-05-11T05:36:58.186Z,23.30
2023-05-11T05:38:59.715Z,23.30
2023-05-11T05:41:02.320Z,23.40
2023-05-11T05:43:03.923Z,23.40
2023-05-11T05:45:05.674Z,23.30
2023-05-11T05:47:07.244Z,23.30
2023-05-11T05:49:08.868Z,23.30
2023-05-11T05:51:10.563Z,23.30
2023-05-11T05:53:12.247Z,23.30
2023-05-11T05:55:13.770Z,23.30
2023-05-11T05:57:15.991Z,23.30
2023-05-11T05:59:19.406Z,23.30
2023-05-11T06:01:22.164Z,23.30
2023-05-11T06:03:24.459Z,23.30
2023-05-11T06:05:27.076Z,23.30
2023-05-11T06:07:28.628Z,23.30
2023-05-11T06:09:30.230Z,23.30
2023-05-11T06:11:32.041Z,23.30
2023-05-11T06:13:33.582Z,23.30
2023-05-11T06:15:35.310Z,23.30
2023-05-11T06:17:36.929Z,23.30
2023-05-11T06:19:38.706Z,23.30
2023-05-11T06:21:41.676Z,23.30
2023-05-11T06:23:43.267Z,23.30
2023-05-11T06:25:44.873Z,23.30
2023-05-11T06:27:46.400Z,23.30
2023-05-11T06:29:48.016Z,23.30
2023-05-11T06:31:54.196Z,23.30
2023-05-11T06:33:55.730Z,23.30
2023-05-11T06:35:57.323Z,23.20
2023-05-11T06:37:59.244Z,23.30
2023-05-11T06:40:00.871Z,23.30
2023-05-11T06:42:05.091Z,23.30
2023-05-11T06:44:08.463Z,23.20
2023-05-11T06:46:10.294Z,23.20
2023-05-11T06:48:11.952Z,23.30
2023-05-11T06:50:13.674Z,23.20
2023-05-11T06:52:15.346Z,23.30
2023-05-11T06:54:16.965Z,23.30
2023-05-11T06:56:18.540Z,23.20
2023-05-11T06:58:20.709Z,23.20
2023-05-11T07:00:22.385Z,23.30
2023-05-11T07:02:24.273Z,23.30
2023-05-11T07:04:26.183Z,23.30
2023-05-11T07:06:27.823Z,23.20
2023-05-11T07:08:29.458Z,23.20
2023-05-11T07:10:31.238Z,23.30
2023-05-11T07:12:32.749Z,23.20
2023-05-11T07:14:34.318Z,23.20
2023-05-11T07:16:38.327Z,23.20
2023-05-11T07:18:40.092Z,23.30
2023-05-11T07:20:41.740Z,23.30
2023-05-11T07:22:43.340Z,23.20
2023-05-11T07:24:44.896Z,23.20
2023-05-11T07:26:46.489Z,23.20
2023-05-11T07:28:48.035Z,23.20
2023-05-11T07:30:49.593Z,23.20
2023-05-11T07:32:51.197Z,23.20
2023-05-11T07:34:52.819Z,23.20
2023-05-11T07:36:54.354Z,23.20
2023-05-11T07:38:57.792Z,23.20
2023-05-11T07:40:59.583Z,23.20
2023-05-11T07:43:01.794Z,23.20
2023-05-11T07:45:03.502Z,23.30
2023-05-11T07:47:05.151Z,23.30
2023-05-11T07:49:15.622Z,23.30
2023-05-11T07:51:22.370Z,23.20
2023-05-11T07:53:23.937Z,23.30
2023-05-11T07:55:25.604Z,23.30
2023-05-11T07:57:27.162Z,23.30
2023-05-11T07:59:28.740Z,23.30
2023-05-11T08:01:30.409Z,23.20
2023-05-11T08:03:32.000Z,23.20
2023-05-11T08:05:37.358Z,23.30
2023-05-11T08:07:41.545Z,23.30
2023-05-11T08:09:43.536Z,23.20
2023-05-11T08:11:45.130Z,23.20
2023-05-11T08:13:46.734Z,23.20
2023-05-11T08:15:48.269Z,23.30
2023-05-11T08:17:50.182Z,23.20
2023-05-11T08:19:52.206Z,23.30
2023-05-11T08:21:53.808Z,23.20
2023-05-11T08:23:55.372Z,23.20
2023-05-11T08:25:57.001Z,23.30
2023-05-11T08:27:58.540Z,23.30
2023-05-11T08:30:02.299Z,23.30
2023-05-11T08:32:03.974Z,23.30
2023-05-11T08:34:17.842Z,23.30
2023-05-11T08:36:21.379Z,23.30
2023-05-11T08:38:22.958Z,23.30
2023-05-11T08:40:26.651Z,23.30
2023-05-11T08:42:29.182Z,23.30
2023-05-11T08:44:32.504Z,23.30
2023-05-11T08:46:35.644Z,23.30
2023-05-11T08:48:37.465Z,23.30
2023-05-11T08:50:39.048Z,23.30
2023-05-11T08:52:41.176Z,23.30
2023-05-11T08:54:43.072Z,23.30
2023-05-11T08:56:45.318Z,23.30
2023-05-11T08:58:47.418Z,23.30
2023-05-11T09:00:49.605Z,23.30
2023-05-11T09:02:52.394Z,23.20
2023-05-11T09:04:54.418Z,23.30
2023-05-11T09:06:56.286Z,23.20
2023-05-11T09:08:58.094Z,23.20
2023-05-11T09:10:59.797Z,23.30
2023-05-11T09:13:01.341Z,23.20
2023-05-11T09:15:03.089Z,23.20
2023-05-11T09:17:04.950Z,23.20
2023-05-11T09:19:07.480Z,23.20
2023-05-11T09:21:09.052Z,23.30
2023-05-11T09:23:10.587Z,23.30
2023-05-11T09:25:13.765Z,23.30
2023-05-11T09:29:22.381Z,23.30
2023-05-11T09:31:43.329Z,23.20
2023-05-11T09:33:44.933Z,23.30
2023-05-11T09:35:47.091Z,23.20
2023-05-11T09:38:02.361Z,23.20
2023-05-11T09:42:13.426Z,23.20
2023-05-11T09:44:15.677Z,23.20
2023-05-11T09:46:21.240Z,23.20
2023-05-11T09:48:27.170Z,23.20
2023-05-11T09:50:32.635Z,23.20
2023-05-11T09:52:34.201Z,23.30
2023-05-11T09:54:40.637Z,23.30
2023-05-11T09:56:44.017Z,23.20
2023-05-11T09:58:48.393Z,23.30
2023-05-11T10:00:56.430Z,23.20
2023-05-11T10:03:02.940Z,23.20
2023-05-11T10:05:10.965Z,23.20
2023-05-11T10:07:22.897Z,23.20
2023-05-11T10:09:25.617Z,23.20
2023-05-11T10:11:27.549Z,23.20
2023-05-11T10:13:29.621Z,23.30
2023-05-11T10:15:33.269Z,23.30
2023-05-11T10:17:35.646Z,23.20
2023-05-11T10:19:37.903Z,23.20
2023-05-11T10:21:39.505Z,23.20
2023-05-11T10:23:41.359Z,23.20
2023-05-11T10:25:43.073Z,23.30
2023-05-11T10:27:44.843Z,23.20
2023-05-11T10:29:46.920Z,23.20
2023-05-11T10:31:48.656Z,23.30
2023-05-11T10:33:53.765Z,23.30
2023-05-11T10:35:55.417Z,23.30
2023-05-11T10:37:58.379Z,23.20
2023-05-11T10:40:00.194Z,23.30
2023-05-11T10:42:20.672Z,23.30
2023-05-11T10:44:22.321Z,23.30
2023-05-11T10:46:41.076Z,23.30
2023-05-11T10:49:05.291Z,23.20
2023-05-11T10:51:12.702Z,23.30
2023-05-11T10:53:17.266Z,23.30
2023-05-11T10:55:37.816Z,23.30
2023-05-11T10:57:39.301Z,23.30
2023-05-11T10:59:41.707Z,23.20
2023-05-11T11:01:43.669Z,23.20
2023-05-11T11:04:03.028Z,23.20
2023-05-11T11:06:04.930Z,23.20
2023-05-11T11:08:09.018Z,23.30
2023-05-11T11:10:10.674Z,23.30
2023-05-11T11:12:12.397Z,23.30
2023-05-11T11:14:14.747Z,23.30
2023-05-11T11:16:18.846Z,23.30
2023-05-11T11:18:24.395Z,23.30
2023-05-11T11:20:44.993Z,23.30
2023-05-11T11:22:47.417Z,23.30
2023-05-11T11:24:49.161Z,23.30
2023-05-11T11:26:50.889Z,23.40
2023-05-11T11:29:00.596Z,23.30
2023-05-11T11:31:21.921Z,23.30
2023-05-11T11:33:23.549Z,23.30
2023-05-11T11:35:41.115Z,23.30
2023-05-11T11:38:03.145Z,23.30
2023-05-11T11:40:14.714Z,23.40
2023-05-11T11:42:18.600Z,23.30
2023-05-11T11:44:21.701Z,23.40
2023-05-11T11:46:27.986Z,23.30
2023-05-11T11:48:29.562Z,23.30
2023-05-11T11:50:31.193Z,23.40
2023-05-11T11:52:35.678Z,23.40
2023-05-11T11:54:38.397Z,23.40
2023-05-11T11:56:40.346Z,23.30
2023-05-11T11:58:42.390Z,23.40
2023-05-11T12:00:47.051Z,23.40
2023-05-11T12:02:48.722Z,23.30
2023-05-11T12:04:51.623Z,23.40
2023-05-11T12:06:58.030Z,23.30
2023-05-11T12:08:59.656Z,23.30
2023-05-11T12:11:02.028Z,23.30
2023-05-11T12:13:03.881Z,23.40
2023-05-11T12:15:06.850Z,23.40
2023-05-11T12:17:15.420Z,23.30
2023-05-11T12:19:23.869Z,23.30
2023-05-11T12:21:27.533Z,23.30
2023-05-11T12:23:29.531Z,23.30
2023-05-11T12:25:31.161Z,23.30
2023-05-11T12:27:32.848Z,23.40
2023-05-11T12:29:34.522Z,23.40
2023-05-11T12:31:36.942Z,23.40
2023-05-11T12:33:48.076Z,23.40
2023-05-11T12:35:53.514Z,23.40
2023-05-11T12:37:55.505Z,23.40
2023-05-11T12:39:57.544Z,23.40
2023-05-11T12:41:59.197Z,23.40
2023-05-11T12:44:00.970Z,23.40
2023-05-11T12:46:03.463Z,23.40
2023-05-11T12:48:05.476Z,23.40
2023-05-11T12:50:07.752Z,23.40
2023-05-11T12:52:10.531Z,23.40
2023-05-11T12:54:12.284Z,23.50
2023-05-11T12:56:13.902Z,23.40
2023-05-11T12:58:16.168Z,23.40
2023-05-11T13:00:19.452Z,23.40
2023-05-11T13:02:23.122Z,23.50
2023-05-11T13:04:31.232Z,23.40
2023-05-11T13:06:32.826Z,23.50
2023-05-11T13:08:38.229Z,23.40
2023-05-11T13:10:39.780Z,23.40
2023-05-11T13:12:47.669Z,23.40
2023-05-11T13:14:50.661Z,23.40
2023-05-11T13:16:55.287Z,23.40
2023-05-11T13:18:58.386Z,23.40
2023-05-11T13:21:06.672Z,23.40
2023-05-11T13:23:09.244Z,23.40
2023-05-11T13:25:10.894Z,23.50
2023-05-11T13:27:12.473Z,23.50
2023-05-11T13:29:14.114Z,23.50
2023-05-11T13:31:15.823Z,23.50
2023-05-11T13:33:18.021Z,23.50
2023-05-11T13:35:19.778Z,23.50
2023-05-11T13:37:21.866Z,23.50
2023-05-11T13:39:23.524Z,23.50
2023-05-11T13:41:25.199Z,23.50
2023-05-11T13:43:26.901Z,23.50
2023-05-11T13:45:28.586Z,23.50
2023-05-11T13:47:31.080Z,23.50
2023-05-11T13:49:32.653Z,23.50
2023-05-11T13:51:34.301Z,23.50
2023-05-11T13:53:35.984Z,23.50
2023-05-11T13:55:38.704Z,23.50
2023-05-11T13:57:40.707Z,23.50
2023-05-11T13:59:42.489Z,23.50
2023-05-11T14:01:44.141Z,23.50
2023-05-11T14:03:51.241Z,23.50
2023-05-11T14:05:52.858Z,23.50
2023-05-11T14:07:54.450Z,23.50
2023-05-11T14:09:56.020Z,23.50
2023-05-11T14:11:57.620Z,23.50
2023-05-11T14:13:59.221Z,23.50
2023-05-11T14:16:01.518Z,23.60
2023-05-11T14:18:07.954Z,23.60
2023-05-11T14:20:10.289Z,23.50
2023-05-11T14:22:11.853Z,23.60
2023-05-11T14:24:13.694Z,23.60
2023-05-11T14:26:15.536Z,23.60
2023-05-11T14:28:17.567Z,23.60
2023-05-11T14:30:19.211Z,23.50
2023-05-11T14:32:20.843Z,23.50
2023-05-11T14:34:22.476Z,23.50
2023-05-11T14:36:23.994Z,23.60
2023-05-11T14:38:25.655Z,23.60
2023-05-11T14:40:27.235Z,23.60
2023-05-11T14:42:29.644Z,23.60
2023-05-11T14:44:31.725Z,23.60
2023-05-11T14:46:33.310Z,23.50
2023-05-11T14:48:34.913Z,23.50
2023-05-11T14:50:36.525Z,23.60
2023-05-11T14:52:38.106Z,23.50
2023-05-11T14:54:39.683Z,23.50
2023-05-11T14:56:41.260Z,23.60
2023-05-11T14:58:43.023Z,23.60
2023-05-11T15:00:44.635Z,23.60
2023-05-11T15:02:46.826Z,23.60
2023-05-11T15:04:48.382Z,23.60
2023-05-11T15:06:49.956Z,23.60
2023-05-11T15:08:51.572Z,23.60
2023-05-11T15:10:53.200Z,23.60
2023-05-11T15:12:54.895Z,23.60
2023-05-11T15:14:56.451Z,23.70
2023-05-11T15:16:59.816Z,23.60
2023-05-11T15:19:01.515Z,23.60
2023-05-11T15:21:04.658Z,23.60
2023-05-11T15:23:06.400Z,23.60
2023-05-11T15:25:08.278Z,23.60
2023-05-11T15:27:09.900Z,23.60
2023-05-11T15:29:11.586Z,23.60
2023-05-11T15:31:13.213Z,23.60
2023-05-11T15:33:15.853Z,23.60
2023-05-11T15:35:18.163Z,23.60
2023-05-11T15:37:19.845Z,23.70
2023-05-11T15:39:21.467Z,23.60
2023-05-11T15:41:23.472Z,23.60
2023-05-11T15:43:25.133Z,23.60
2023-05-11T15:45:27.133Z,23.60
2023-05-11T15:47:28.849Z,23.60
2023-05-11T15:49:30.590Z,23.60
2023-05-11T15:51:32.121Z,23.60
2023-05-11T15:53:33.696Z,23.60
2023-05-11T15:55:35.331Z,23.60
2023-05-11T15:57:36.967Z,23.60
2023-05-11T15:59:38.508Z,23.60
2023-05-11T16:01:40.231Z,23.60
2023-05-11T16:03:41.898Z,23.60
2023-05-11T16:05:44.495Z,23.60
2023-05-11T16:07:46.116Z,23.60
2023-05-11T16:09:47.792Z,23.60
2023-05-11T16:11:49.393Z,23.60
2023-05-11T16:13:51.363Z,23.60
2023-05-11T16:15:52.997Z,23.60
2023-05-11T16:17:54.757Z,23.60
2023-05-11T16:19:56.788Z,23.60
2023-05-11T16:21:58.350Z,23.60
2023-05-11T16:24:00.058Z,23.70
2023-05-11T16:26:01.668Z,23.70
2023-05-11T16:28:03.396Z,23.80
2023-05-11T16:30:22.525Z,23.70
2023-05-11T16:32:26.287Z,23.80
2023-05-11T16:34:27.856Z,23.80
2023-05-11T16:36:29.681Z,23.70
2023-05-11T16:38:31.877Z,23.70
2023-05-11T16:40:33.444Z,23.70
2023-05-11T16:42:34.962Z,23.80
2023-05-11T16:44:36.594Z,23.80
2023-05-11T16:46:38.215Z,23.80
2023-05-11T16:48:39.958Z,23.80
2023-05-11T16:50:42.256Z,23.80
2023-05-11T16:52:43.822Z,23.80
2023-05-11T16:54:45.494Z,23.80
2023-05-11T16:56:47.353Z,23.80
2023-05-11T16:58:48.880Z,23.80
2023-05-11T17:00:50.870Z,23.80
2023-05-11T17:02:52.637Z,23.80
2023-05-11T17:04:54.300Z,23.80
2023-05-11T17:06:55.911Z,23.80
2023-05-11T17:08:57.498Z,23.80
2023-05-11T17:10:59.313Z,23.80
2023-05-11T17:13:01.137Z,23.70
2023-05-11T17:15:03.524Z,23.70
2023-05-11T17:17:06.823Z,23.70
2023-05-11T17:19:09.446Z,23.80
2023-05-11T17:21:11.276Z,23.70
2023-05-11T17:23:13.005Z,23.80
2023-05-11T17:25:14.876Z,23.70
2023-05-11T17:27:16.452Z,23.70
2023-05-11T17:29:18.115Z,23.70
2023-05-11T17:31:19.850Z,23.60
2023-05-11T17:33:23.384Z,23.60
2023-05-11T17:35:25.016Z,23.60
2023-05-11T17:37:31.929Z,23.60
2023-05-11T17:39:34.247Z,23.60
2023-05-11T17:41:35.979Z,23.60
2023-05-11T17:43:38.148Z,23.60
2023-05-11T17:45:39.753Z,23.60
2023-05-11T17:47:41.485Z,23.60
2023-05-11T17:49:43.089Z,23.60
2023-05-11T17:51:44.653Z,23.60
2023-05-11T17:53:46.558Z,23.60
2023-05-11T17:55:48.312Z,23.50
2023-05-11T17:57:51.572Z,23.50
2023-05-11T17:59:53.567Z,23.50
2023-05-11T18:01:55.448Z,23.50
2023-05-11T18:03:57.558Z,23.50
2023-05-11T18:05:59.277Z,23.50
2023-05-11T18:08:02.805Z,23.50
2023-05-11T18:10:04.589Z,23.50
2023-05-11T18:12:07.877Z,23.50
2023-05-11T18:14:10.696Z,23.50
2023-05-11T18:16:12.288Z,23.60
2023-05-11T18:18:14.511Z,23.60
2023-05-11T18:20:16.572Z,23.60
2023-05-11T18:22:18.234Z,23.60
2023-05-11T18:24:19.971Z,23.70
2023-05-11T18:26:22.120Z,23.60
2023-05-11T18:28:23.684Z,23.70
2023-05-11T18:30:29.511Z,23.70
2023-05-11T18:32:31.141Z,23.70
2023-05-11T18:34:34.076Z,23.70
2023-05-11T18:36:35.640Z,23.70
2023-05-11T18:38:37.309Z,23.70
2023-05-11T18:40:38.849Z,23.70
2023-05-11T18:42:40.750Z,23.70
2023-05-11T18:44:42.526Z,23.70
2023-05-11T18:46:44.185Z,23.70
2023-05-11T18:48:46.025Z,23.70
2023-05-11T18:50:53.582Z,23.70
2023-05-11T18:52:55.693Z,23.60
2023-05-11T18:54:58.243Z,23.60
2023-05-11T18:56:59.814Z,23.60
2023-05-11T18:59:01.349Z,23.60
2023-05-11T19:01:03.192Z,23.60
2023-05-11T19:03:05.417Z,23.60
2023-05-11T19:05:07.484Z,23.60
2023-05-11T19:07:09.467Z,23.60
2023-05-11T19:09:11.147Z,23.60
2023-05-11T19:11:14.017Z,23.60
2023-05-11T19:13:15.824Z,23.60
2023-05-11T19:15:17.442Z,23.60
2023-05-11T19:17:19.282Z,23.60
2023-05-11T19:19:21.015Z,23.60
2023-05-11T19:21:22.631Z,23.50
2023-05-11T19:23:24.183Z,23.60
2023-05-11T19:25:25.701Z,23.60
2023-05-11T19:27:27.228Z,23.50
2023-05-11T19:29:28.787Z,23.50
2023-05-11T19:31:31.496Z,23.50
2023-05-11T19:33:33.195Z,23.50
2023-05-11T19:35:34.744Z,23.50
2023-05-11T19:37:36.326Z,23.50
2023-05-11T19:39:37.870Z,23.50
2023-05-11T19:41:39.423Z,23.50
2023-05-11T19:43:41.030Z,23.50
2023-05-11T19:45:48.160Z,23.50
2023-05-11T19:47:49.794Z,23.50
2023-05-11T19:49:51.446Z,23.50
2023-05-11T19:51:53.049Z,23.50
2023-05-11T19:53:54.780Z,23.50
2023-05-11T19:55:56.767Z,23.50
2023-05-11T19:57:58.400Z,23.40
2023-05-11T20:00:01.672Z,23.50
2023-05-11T20:02:03.821Z,23.50
2023-05-11T20:04:05.535Z,23.50
2023-05-11T20:06:07.216Z,23.50
2023-05-11T20:08:09.121Z,23.50
2023-05-11T20:10:11.910Z,23.50
2023-05-11T20:12:13.627Z,23.50
2023-05-11T20:14:15.167Z,23.50
2023-05-11T20:16:16.780Z,23.50
2023-05-11T20:18:18.408Z,23.50
2023-05-11T20:20:20.132Z,23.40
2023-05-11T20:22:22.587Z,23.50
2023-05-11T20:24:24.198Z,23.50
2023-05-11T20:26:25.811Z,23.50
2023-05-11T20:28:27.981Z,23.50
2023-05-11T20:30:29.590Z,23.40
2023-05-11T20:32:31.215Z,23.50
2023-05-11T20:34:32.863Z,23.50
2023-05-11T20:36:34.579Z,23.50
2023-05-11T20:38:36.277Z,23.40
2023-05-11T20:40:37.833Z,23.40
2023-05-11T20:42:39.405Z,23.40
2023-05-11T20:44:41.027Z,23.40
2023-05-11T20:46:42.862Z,23.40
2023-05-11T20:48:49.481Z,23.40
2023-05-11T20:50:53.198Z,23.40
2023-05-11T20:52:54.855Z,23.40
2023-05-11T20:54:56.510Z,23.40
2023-05-11T20:56:58.171Z,23.40
2023-05-11T20:58:59.779Z,23.40
2023-05-11T21:01:01.457Z,23.30
2023-05-11T21:03:03.248Z,23.40
2023-05-11T21:05:04.944Z,23.40
2023-05-11T21:07:06.525Z,23.30
2023-05-11T21:09:08.067Z,23.30
2023-05-11T21:11:09.829Z,23.30
2023-05-11T21:13:13.057Z,23.30
2023-05-11T21:15:14.850Z,23.30
2023-05-11T21:17:16.665Z,23.30
2023-05-11T21:19:18.504Z,23.30
2023-05-11T21:21:20.525Z,23.30
2023-05-11T21:23:22.262Z,23.30
2023-05-11T21:25:23.839Z,23.30
2023-05-11T21:27:25.395Z,23.30
2023-05-11T21:29:27.047Z,23.30
2023-05-11T21:31:28.838Z,23.30
2023-05-11T21:33:30.525Z,23.30
2023-05-11T21:35:32.060Z,23.30
2023-05-11T21:37:35.398Z,23.30
2023-05-11T21:39:36.928Z,23.30
2023-05-11T21:41:38.936Z,23.30
2023-05-11T21:43:40.480Z,23.30
2023-05-11T21:45:43.753Z,23.30
2023-05-11T21:47:45.722Z,23.30
2023-05-11T21:49:48.196Z,23.30
2023-05-11T21:51:51.202Z,23.30
2023-05-11T21:53:52.971Z,23.30
2023-05-11T21:55:55.002Z,23.30
2023-05-11T21:57:56.954Z,23.30
2023-05-11T21:59:58.567Z,23.30
2023-05-11T22:02:00.225Z,23.30
2023-05-11T22:04:02.152Z,23.30
2023-05-11T22:06:03.974Z,23.30
2023-05-11T22:08:13.873Z,23.30
2023-05-11T22:10:17.422Z,23.30
2023-05-11T22:12:19.090Z,23.30
2023-05-11T22:14:24.153Z,23.20
2023-05-11T22:16:25.995Z,23.30
2023-05-11T22:18:27.708Z,23.20
2023-05-11T22:20:31.420Z,23.20
2023-05-11T22:22:33.595Z,23.20
2023-05-11T22:24:35.126Z,23.20
2023-05-11T22:26:36.820Z,23.20
2023-05-11T22:28:38.393Z,23.20
2023-05-11T22:30:40.085Z,23.20
2023-05-11T22:32:41.838Z,23.20
2023-05-11T22:34:43.465Z,23.20
2023-05-11T22:36:45.663Z,23.20
2023-05-11T22:38:47.304Z,23.20
2023-05-11T22:40:48.867Z,23.20
2023-05-11T22:42:50.428Z,23.20
2023-05-11T22:44:52.297Z,23.20
2023-05-11T22:46:56.325Z,23.20
2023-05-11T22:48:58.037Z,23.20
2023-05-11T22:50:59.642Z,23.20
2023-05-11T22:53:01.264Z,23.20
2023-05-11T22:55:03.956Z,23.20
2023-05-11T22:57:06.368Z,23.20
2023-05-11T22:59:08.063Z,23.20
2023-05-11T23:01:09.717Z,23.20
2023-05-11T23:03:11.903Z,23.20
2023-05-11T23:05:13.647Z,23.20
2023-05-11T23:07:15.174Z,23.20
2023-05-11T23:09:17.128Z,23.20
2023-05-11T23:11:18.719Z,23.20
2023-05-11T23:13:20.313Z,23.20
2023-05-11T23:15:21.893Z,23.20
2023-05-11T23:17:23.519Z,23.20
2023-05-11T23:19:25.596Z,23.20
2023-05-11T23:21:27.346Z,23.20
2023-05-11T23:23:28.976Z,23.20
2023-05-11T23:25:30.497Z,23.20
2023-05-11T23:27:32.029Z,23.20
2023-05-11T23:29:33.639Z,23.20
2023-05-11T23:31:35.588Z,23.10
2023-05-11T23:33:37.494Z,23.20
2023-05-11T23:35:39.070Z,23.10
2023-05-11T23:37:40.724Z,23.10
2023-05-11T23:39:42.288Z,23.20
2023-05-11T23:41:43.889Z,23.10
2023-05-11T23:43:45.434Z,23.20
2023-05-11T23:45:47.019Z,23.10
2023-05-11T23:47:48.940Z,23.10
2023-05-11T23:49:50.765Z,23.10
2023-05-11T23:51:52.555Z,23.10
2023-05-11T23:53:54.103Z,23.10
2023-05-11T23:55:55.682Z,23.10
2023-05-11T23:57:58.766Z,23.10
